createdAt,value
2016-05-09T00:00:12.497Z,16.53
2016-05-09T00:01:12.656Z,16.52
2016-05-09T00:02:12.629Z,16.48
2016-05-09T00:03:12.631Z,16.49
2016-05-09T00:04:12.618Z,16.45
2016-05-09T00:05:12.604Z,16.49
2016-05-09T00:06:12.592Z,16.38
2016-05-09T00:07:12.579Z,16.45
2016-05-09T00:08:12.566Z,16.4
2016-05-09T00:09:12.428Z,16.35
2016-05-09T00:10:12.556Z,16.34
2016-05-09T00:11:12.542Z,16.35
2016-05-09T00:12:12.530Z,16.41
2016-05-09T00:13:12.517Z,16.35
2016-05-09T00:14:12.348Z,16.37
2016-05-09T00:15:12.350Z,16.33
2016-05-09T00:16:12.494Z,16.33
2016-05-09T00:17:12.480Z,16.27
2016-05-09T00:18:12.467Z,16.35
2016-05-09T00:19:12.455Z,16.31
2016-05-09T00:20:12.442Z,16.23
2016-05-09T00:21:12.445Z,16.31
2016-05-09T00:22:12.432Z,16.26
2016-05-09T00:23:12.419Z,16.23
2016-05-09T00:24:12.405Z,16.26
2016-05-09T00:25:12.393Z,16.27
2016-05-09T00:26:12.379Z,16.25
2016-05-09T00:27:12.367Z,16.23
2016-05-09T00:28:12.354Z,16.14
2016-05-09T00:29:12.357Z,16.15
2016-05-09T00:30:12.344Z,16.12
2016-05-09T00:31:12.174Z,16.01
2016-05-09T00:32:12.318Z,16.14
2016-05-09T00:33:12.305Z,16.14
2016-05-09T00:34:12.135Z,16.15
2016-05-09T00:35:12.279Z,16.16
2016-05-09T00:36:12.266Z,16.11
2016-05-09T00:37:12.300Z,16.15
2016-05-09T00:38:12.256Z,16.22
2016-05-09T00:39:12.243Z,16.12
2016-05-09T00:40:12.074Z,16.11
2016-05-09T00:41:12.217Z,16.15
2016-05-09T00:42:12.204Z,16.14
2016-05-09T00:43:12.207Z,16.12
2016-05-09T00:44:12.242Z,16.12
2016-05-09T00:45:12.180Z,16.04
2016-05-09T00:46:12.184Z,16.09
2016-05-09T00:47:12.155Z,15.99
2016-05-09T00:48:12.142Z,16.11
2016-05-09T00:49:12.129Z,16.06
2016-05-09T00:50:12.133Z,16.07
2016-05-09T00:51:12.103Z,16.03
2016-05-09T00:52:12.106Z,16.04
2016-05-09T00:53:11.936Z,16.03
2016-05-09T00:54:12.080Z,16.03
2016-05-09T00:55:12.067Z,16
2016-05-09T00:56:12.054Z,16.04
2016-05-09T00:57:12.041Z,16.04
2016-05-09T00:58:11.872Z,16.04
2016-05-09T00:59:12.578Z,16.06
2016-05-09T01:00:12.018Z,16.01
2016-05-09T01:01:12.021Z,16.04
2016-05-09T01:02:11.836Z,15.96
2016-05-09T01:03:11.979Z,15.93
2016-05-09T01:04:11.982Z,15.93
2016-05-09T01:05:11.954Z,16.01
2016-05-09T01:06:11.956Z,16.01
2016-05-09T01:07:11.928Z,15.93
2016-05-09T01:08:11.914Z,15.93
2016-05-09T01:09:11.918Z,15.99
2016-05-09T01:10:11.905Z,15.94
2016-05-09T01:11:11.892Z,15.88
2016-05-09T01:12:11.894Z,15.88
2016-05-09T01:13:11.865Z,15.94
2016-05-09T01:14:11.711Z,15.93
2016-05-09T01:15:11.856Z,15.81
2016-05-09T01:16:11.843Z,15.82
2016-05-09T01:17:11.830Z,15.82
2016-05-09T01:18:11.817Z,15.75
2016-05-09T01:19:11.803Z,15.82
2016-05-09T01:20:11.791Z,15.76
2016-05-09T01:21:11.777Z,15.72
2016-05-09T01:22:11.625Z,15.72
2016-05-09T01:23:11.767Z,15.72
2016-05-09T01:24:11.755Z,15.76
2016-05-09T01:25:11.726Z,15.66
2016-05-09T01:26:11.713Z,15.7
2016-05-09T01:27:11.716Z,15.6
2016-05-09T01:28:11.703Z,15.63
2016-05-09T01:29:13.237Z,15.6
2016-05-09T01:30:11.674Z,15.61
2016-05-09T01:31:11.661Z,15.68
2016-05-09T01:32:11.492Z,15.6
2016-05-09T01:33:11.635Z,15.64
2016-05-09T01:34:11.482Z,15.51
2016-05-09T01:35:11.469Z,15.56
2016-05-09T01:36:11.612Z,15.57
2016-05-09T01:37:11.443Z,15.48
2016-05-09T01:38:11.586Z,15.56
2016-05-09T01:39:11.574Z,15.52
2016-05-09T01:40:11.561Z,15.56
2016-05-09T01:41:11.548Z,15.59
2016-05-09T01:42:11.535Z,15.51
2016-05-09T01:43:11.725Z,15.56
2016-05-09T01:44:11.524Z,15.49
2016-05-09T01:45:11.356Z,15.59
2016-05-09T01:46:11.342Z,15.52
2016-05-09T01:47:11.486Z,15.51
2016-05-09T01:48:11.473Z,15.54
2016-05-09T01:49:11.459Z,15.54
2016-05-09T01:50:11.462Z,15.51
2016-05-09T01:51:11.449Z,15.52
2016-05-09T01:52:11.437Z,15.52
2016-05-09T01:53:11.424Z,15.56
2016-05-09T01:54:11.411Z,15.49
2016-05-09T01:55:11.397Z,15.54
2016-05-09T01:56:11.400Z,15.52
2016-05-09T01:57:11.388Z,15.52
2016-05-09T01:58:11.359Z,15.49
2016-05-09T01:59:11.736Z,15.56
2016-05-09T02:00:11.364Z,15.49
2016-05-09T02:01:11.335Z,15.51
2016-05-09T02:02:11.307Z,15.56
2016-05-09T02:03:11.310Z,15.51
2016-05-09T02:04:11.297Z,15.59
2016-05-09T02:05:11.285Z,15.54
2016-05-09T02:06:11.271Z,15.51
2016-05-09T02:07:11.273Z,15.45
2016-05-09T02:08:11.245Z,15.52
2016-05-09T02:09:11.233Z,15.45
2016-05-09T02:10:11.220Z,15.45
2016-05-09T02:11:11.223Z,15.49
2016-05-09T02:12:11.209Z,15.41
2016-05-09T02:13:11.196Z,15.31
2016-05-09T02:14:11.683Z,15.39
2016-05-09T02:15:11.171Z,15.39
2016-05-09T02:16:11.157Z,15.41
2016-05-09T02:17:11.192Z,15.35
2016-05-09T02:18:11.162Z,15.39
2016-05-09T02:19:11.119Z,15.38
2016-05-09T02:20:10.949Z,15.39
2016-05-09T02:21:11.108Z,15.33
2016-05-09T02:22:10.767Z,15.36
2016-05-09T02:23:11.083Z,15.39
2016-05-09T02:24:11.076Z,15.36
2016-05-09T02:25:11.063Z,15.31
2016-05-09T02:26:10.893Z,15.28
2016-05-09T02:27:11.022Z,15.33
2016-05-09T02:28:11.025Z,15.39
2016-05-09T02:29:11.637Z,15.39
2016-05-09T02:30:11.045Z,15.38
2016-05-09T02:31:11.001Z,15.39
2016-05-09T02:32:10.973Z,15.39
2016-05-09T02:33:10.960Z,15.41
2016-05-09T02:34:10.948Z,15.41
2016-05-09T02:35:10.934Z,15.43
2016-05-09T02:36:10.765Z,15.36
2016-05-09T02:37:11.111Z,15.41
2016-05-09T02:38:10.895Z,15.3
2016-05-09T02:39:10.882Z,15.33
2016-05-09T02:40:10.885Z,15.35
2016-05-09T02:41:10.856Z,15.33
2016-05-09T02:42:10.875Z,15.3
2016-05-09T02:43:10.847Z,15.33
2016-05-09T02:44:10.927Z,15.19
2016-05-09T02:45:10.836Z,15.35
2016-05-09T02:46:10.808Z,15.28
2016-05-09T02:47:10.794Z,15.28
2016-05-09T02:48:10.781Z,15.24
2016-05-09T02:49:10.784Z,15.28
2016-05-09T02:50:10.678Z,15.24
2016-05-09T02:51:10.743Z,15.27
2016-05-09T02:52:10.746Z,15.24
2016-05-09T02:53:10.732Z,15.2
2016-05-09T02:54:10.719Z,15.13
2016-05-09T02:55:10.690Z,15.15
2016-05-09T02:56:10.710Z,15.11
2016-05-09T02:57:10.680Z,15.12
2016-05-09T02:58:10.668Z,15.09
2016-05-09T02:59:10.654Z,15.11
2016-05-09T03:00:10.502Z,15.09
2016-05-09T03:01:10.629Z,15.15
2016-05-09T03:02:10.616Z,15.05
2016-05-09T03:03:10.603Z,15.06
2016-05-09T03:04:10.606Z,15.05
2016-05-09T03:05:10.608Z,15.02
2016-05-09T03:06:10.658Z,14.99
2016-05-09T03:07:10.473Z,15.05
2016-05-09T03:08:10.585Z,15.03
2016-05-09T03:09:10.541Z,14.99
2016-05-09T03:10:10.529Z,14.98
2016-05-09T03:11:10.359Z,14.95
2016-05-09T03:12:10.517Z,14.93
2016-05-09T03:13:10.489Z,14.91
2016-05-09T03:14:10.789Z,14.86
2016-05-09T03:15:10.479Z,14.87
2016-05-09T03:16:10.450Z,14.78
2016-05-09T03:17:10.438Z,14.78
2016-05-09T03:18:10.284Z,14.81
2016-05-09T03:19:10.411Z,14.74
2016-05-09T03:20:10.399Z,14.72
2016-05-09T03:21:10.402Z,14.8
2016-05-09T03:22:10.233Z,14.68
2016-05-09T03:23:10.375Z,14.69
2016-05-09T03:24:10.191Z,14.69
2016-05-09T03:25:10.349Z,14.69
2016-05-09T03:26:10.180Z,14.67
2016-05-09T03:27:10.168Z,14.56
2016-05-09T03:28:10.311Z,14.68
2016-05-09T03:29:10.299Z,14.61
2016-05-09T03:30:10.285Z,14.54
2016-05-09T03:31:10.272Z,14.62
2016-05-09T03:32:10.290Z,14.57
2016-05-09T03:33:10.246Z,14.61
2016-05-09T03:34:10.233Z,14.49
2016-05-09T03:35:10.237Z,14.49
2016-05-09T03:36:10.223Z,14.46
2016-05-09T03:37:10.195Z,14.52
2016-05-09T03:38:10.197Z,14.49
2016-05-09T03:39:10.185Z,14.5
2016-05-09T03:40:10.156Z,14.52
2016-05-09T03:41:10.143Z,14.54
2016-05-09T03:42:10.145Z,14.56
2016-05-09T03:43:10.148Z,14.52
2016-05-09T03:44:09.978Z,14.49
2016-05-09T03:45:10.107Z,14.43
2016-05-09T03:46:10.094Z,14.46
2016-05-09T03:47:10.081Z,14.46
2016-05-09T03:48:10.067Z,14.44
2016-05-09T03:49:19.870Z,14.43
2016-05-09T03:50:11.308Z,14.35
2016-05-09T03:51:09.888Z,14.42
2016-05-09T03:52:10.016Z,14.38
2016-05-09T03:53:10.003Z,14.38
2016-05-09T03:54:09.990Z,14.37
2016-05-09T03:55:10.008Z,14.37
2016-05-09T03:56:09.964Z,14.37
2016-05-09T03:57:09.952Z,14.27
2016-05-09T03:58:09.985Z,14.24
2016-05-09T03:59:09.941Z,14.27
2016-05-09T04:00:09.928Z,14.28
2016-05-09T04:01:09.916Z,14.28
2016-05-09T04:02:09.918Z,14.24
2016-05-09T04:03:09.890Z,14.27
2016-05-09T04:04:09.876Z,14.21
2016-05-09T04:05:09.863Z,14.25
2016-05-09T04:06:09.694Z,14.13
2016-05-09T04:07:09.838Z,14.17
2016-05-09T04:08:09.825Z,14.16
2016-05-09T04:09:09.656Z,14.13
2016-05-09T04:10:09.642Z,14.17
2016-05-09T04:11:09.786Z,14.06
2016-05-09T04:12:09.616Z,14.1
2016-05-09T04:13:09.760Z,14.09
2016-05-09T04:14:09.842Z,14.1
2016-05-09T04:15:09.734Z,14.13
2016-05-09T04:16:09.736Z,14.1
2016-05-09T04:17:09.708Z,14.1
2016-05-09T04:18:09.539Z,14.12
2016-05-09T04:19:09.683Z,14.02
2016-05-09T04:20:09.670Z,14.12
2016-05-09T04:21:09.672Z,13.99
2016-05-09T04:22:09.643Z,14.13
2016-05-09T04:23:09.646Z,14.12
2016-05-09T04:24:09.493Z,14.12
2016-05-09T04:25:09.621Z,14.02
2016-05-09T04:26:09.608Z,14.09
2016-05-09T04:27:09.594Z,13.99
2016-05-09T04:28:09.582Z,14.07
2016-05-09T04:29:09.569Z,14.04
2016-05-09T04:30:09.555Z,14.06
2016-05-09T04:31:09.543Z,14.01
2016-05-09T04:32:09.530Z,14.01
2016-05-09T04:33:09.517Z,13.94
2016-05-09T04:34:09.348Z,14.01
2016-05-09T04:35:09.491Z,13.99
2016-05-09T04:36:09.478Z,14.01
2016-05-09T04:37:09.496Z,14.09
2016-05-09T04:38:09.452Z,14.13
2016-05-09T04:39:09.284Z,14.06
2016-05-09T04:40:09.270Z,14.1
2016-05-09T04:41:09.289Z,14.07
2016-05-09T04:42:09.431Z,14.09
2016-05-09T04:43:09.403Z,14.17
2016-05-09T04:44:09.859Z,14.16
2016-05-09T04:45:09.221Z,14.21
2016-05-09T04:46:09.365Z,14.17
2016-05-09T04:47:09.351Z,14.12
2016-05-09T04:48:09.338Z,14.25
2016-05-09T04:49:09.325Z,14.25
2016-05-09T04:50:09.314Z,14.17
2016-05-09T04:51:09.143Z,14.28
2016-05-09T04:52:09.287Z,14.27
2016-05-09T04:53:09.383Z,14.35
2016-05-09T04:54:09.261Z,14.34
2016-05-09T04:55:09.263Z,14.42
2016-05-09T04:56:09.236Z,14.42
2016-05-09T04:57:09.222Z,14.53
2016-05-09T04:58:09.210Z,14.47
2016-05-09T04:59:09.196Z,14.5
2016-05-09T05:00:09.183Z,14.5
2016-05-09T05:01:09.029Z,14.47
2016-05-09T05:02:09.017Z,14.52
2016-05-09T05:03:09.160Z,14.53
2016-05-09T05:04:09.147Z,14.5
2016-05-09T05:05:09.134Z,14.56
2016-05-09T05:06:09.121Z,14.54
2016-05-09T05:07:09.093Z,14.49
2016-05-09T05:08:09.096Z,14.67
2016-05-09T05:09:09.082Z,14.68
2016-05-09T05:10:08.945Z,14.67
2016-05-09T05:11:09.073Z,14.69
2016-05-09T05:12:09.043Z,14.75
2016-05-09T05:13:09.046Z,14.71
2016-05-09T05:14:08.721Z,14.74
2016-05-09T05:15:09.051Z,14.81
2016-05-09T05:16:08.851Z,14.87
2016-05-09T05:17:08.994Z,14.98
2016-05-09T05:18:08.967Z,14.94
2016-05-09T05:19:08.984Z,14.99
2016-05-09T05:20:08.956Z,14.98
2016-05-09T05:21:08.786Z,14.99
2016-05-09T05:22:08.774Z,15.12
2016-05-09T05:23:08.760Z,15.06
2016-05-09T05:24:08.905Z,15.12
2016-05-09T05:25:08.939Z,15.23
2016-05-09T05:26:08.910Z,15.23
2016-05-09T05:27:08.880Z,15.2
2016-05-09T05:28:08.711Z,15.26
2016-05-09T05:29:08.855Z,15.3
2016-05-09T05:30:08.842Z,15.28
2016-05-09T05:31:08.814Z,15.35
2016-05-09T05:32:08.832Z,15.48
2016-05-09T05:33:08.631Z,15.45
2016-05-09T05:34:08.774Z,15.51
2016-05-09T05:35:08.777Z,15.48
2016-05-09T05:36:08.765Z,15.56
2016-05-09T05:37:08.752Z,15.6
2016-05-09T05:38:08.942Z,15.67
2016-05-09T05:39:08.570Z,15.64
2016-05-09T05:40:08.712Z,15.76
2016-05-09T05:41:08.715Z,15.72
2016-05-09T05:42:08.687Z,15.81
2016-05-09T05:43:08.690Z,15.74
2016-05-09T05:44:08.676Z,15.78
2016-05-09T05:45:08.648Z,15.79
2016-05-09T05:46:08.651Z,15.81
2016-05-09T05:47:08.638Z,15.86
2016-05-09T05:48:08.625Z,15.92
2016-05-09T05:49:08.612Z,15.94
2016-05-09T05:50:08.599Z,15.93
2016-05-09T05:51:08.586Z,15.99
2016-05-09T05:52:08.572Z,16.01
2016-05-09T05:53:08.560Z,16.04
2016-05-09T05:54:08.548Z,16.11
2016-05-09T05:55:08.534Z,16.12
2016-05-09T05:56:08.522Z,16.14
2016-05-09T05:57:08.524Z,16.16
2016-05-09T05:58:08.511Z,16.15
2016-05-09T05:59:08.498Z,16.16
2016-05-09T06:00:08.485Z,16.26
2016-05-09T06:01:08.531Z,16.25
2016-05-09T06:02:08.390Z,16.3
2016-05-09T06:03:08.577Z,16.34
2016-05-09T06:04:08.452Z,16.3
2016-05-09T06:05:08.640Z,16.37
2016-05-09T06:06:08.502Z,16.37
2016-05-09T06:07:08.521Z,16.35
2016-05-09T06:08:08.663Z,16.42
2016-05-09T06:09:08.666Z,16.53
2016-05-09T06:10:08.669Z,16.53
2016-05-09T06:11:08.521Z,16.49
2016-05-09T06:12:08.654Z,16.56
2016-05-09T06:13:08.507Z,16.5
2016-05-09T06:14:08.911Z,16.6
2016-05-09T06:15:08.638Z,16.62
2016-05-09T06:16:08.643Z,16.6
2016-05-09T06:17:08.631Z,16.65
2016-05-09T06:18:08.621Z,16.77
2016-05-09T06:19:08.470Z,16.74
2016-05-09T06:20:08.583Z,16.75
2016-05-09T06:21:08.586Z,16.7
2016-05-09T06:22:08.574Z,16.78
2016-05-09T06:23:08.609Z,16.7
2016-05-09T06:24:08.565Z,16.74
2016-05-09T06:25:08.553Z,16.83
2016-05-09T06:26:08.525Z,16.81
2016-05-09T06:27:08.543Z,16.89
2016-05-09T06:28:08.515Z,16.96
2016-05-09T06:29:08.611Z,16.93
2016-05-09T06:30:08.489Z,16.99
2016-05-09T06:31:08.476Z,17.03
2016-05-09T06:32:08.478Z,17.04
2016-05-09T06:33:08.308Z,17.03
2016-05-09T06:34:08.452Z,17.13
2016-05-09T06:35:08.439Z,17.1
2016-05-09T06:36:08.427Z,17.1
2016-05-09T06:37:08.820Z,17.2
2016-05-09T06:38:08.401Z,17.22
2016-05-09T06:39:08.404Z,17.23
2016-05-09T06:40:08.375Z,17.25
2016-05-09T06:41:08.440Z,17.25
2016-05-09T06:42:08.365Z,17.32
2016-05-09T06:43:08.446Z,17.29
2016-05-09T06:44:08.354Z,17.32
2016-05-09T06:45:08.186Z,17.36
2016-05-09T06:46:08.329Z,17.36
2016-05-09T06:47:08.316Z,17.43
2016-05-09T06:48:08.318Z,17.53
2016-05-09T06:49:08.134Z,17.38
2016-05-09T06:50:08.277Z,17.53
2016-05-09T06:51:08.264Z,17.55
2016-05-09T06:52:08.267Z,17.55
2016-05-09T06:53:08.253Z,17.55
2016-05-09T06:54:08.240Z,17.67
2016-05-09T06:55:08.228Z,17.71
2016-05-09T06:56:08.215Z,17.66
2016-05-09T06:57:08.203Z,17.74
2016-05-09T06:58:08.205Z,17.74
2016-05-09T06:59:08.254Z,17.74
2016-05-09T07:00:08.179Z,17.79
2016-05-09T07:01:08.166Z,17.78
2016-05-09T07:02:08.169Z,17.91
2016-05-09T07:03:08.155Z,17.92
2016-05-09T07:04:08.142Z,18.02
2016-05-09T07:05:08.130Z,18.03
2016-05-09T07:06:08.132Z,18
2016-05-09T07:07:08.105Z,18.06
2016-05-09T07:08:08.107Z,18.09
2016-05-09T07:09:08.094Z,18.07
2016-05-09T07:10:08.080Z,18.07
2016-05-09T07:11:08.068Z,18.17
2016-05-09T07:12:08.055Z,18.19
2016-05-09T07:13:08.058Z,18.13
2016-05-09T07:14:08.045Z,18.18
2016-05-09T07:15:08.032Z,18.22
2016-05-09T07:16:08.019Z,18.27
2016-05-09T07:17:08.006Z,18.27
2016-05-09T07:18:07.837Z,18.39
2016-05-09T07:19:07.980Z,18.46
2016-05-09T07:20:07.826Z,18.43
2016-05-09T07:21:07.813Z,18.4
2016-05-09T07:22:07.957Z,18.55
2016-05-09T07:23:07.943Z,18.58
2016-05-09T07:24:07.790Z,18.58
2016-05-09T07:25:07.934Z,18.49
2016-05-09T07:26:07.921Z,18.52
2016-05-09T07:27:07.923Z,18.64
2016-05-09T07:28:07.911Z,18.74
2016-05-09T07:29:07.898Z,18.92
2016-05-09T07:30:07.901Z,18.84
2016-05-09T07:31:07.731Z,19.05
2016-05-09T07:32:07.889Z,19.01
2016-05-09T07:33:07.862Z,19.18
2016-05-09T07:34:07.864Z,19.39
2016-05-09T07:35:07.851Z,19.4
2016-05-09T07:36:07.839Z,19.5
2016-05-09T07:37:07.685Z,19.43
2016-05-09T07:38:07.859Z,19.51
2016-05-09T07:39:07.831Z,19.54
2016-05-09T07:40:07.833Z,19.65
2016-05-09T07:41:07.664Z,19.72
2016-05-09T07:42:07.824Z,19.83
2016-05-09T07:43:07.654Z,19.84
2016-05-09T07:44:07.969Z,19.9
2016-05-09T07:45:07.800Z,19.95
2016-05-09T07:46:07.818Z,19.95
2016-05-09T07:47:07.821Z,20.1
2016-05-09T07:48:07.855Z,20.15
2016-05-09T07:49:07.795Z,20.23
2016-05-09T07:50:07.783Z,20.31
2016-05-09T07:51:07.790Z,20.31
2016-05-09T07:52:07.809Z,20.38
2016-05-09T07:53:07.812Z,20.38
2016-05-09T07:54:07.798Z,20.41
2016-05-09T07:55:07.777Z,20.43
2016-05-09T07:56:07.641Z,20.47
2016-05-09T07:57:07.800Z,20.51
2016-05-09T07:58:07.787Z,20.64
2016-05-09T07:59:07.775Z,20.64
2016-05-09T08:00:07.777Z,20.69
2016-05-09T08:01:07.763Z,20.69
2016-05-09T08:02:07.751Z,20.64
2016-05-09T08:03:07.754Z,20.77
2016-05-09T08:04:07.756Z,20.77
2016-05-09T08:05:11.259Z,20.77
2016-05-09T08:06:28.309Z,20.8
2016-05-09T08:07:22.936Z,20.8
2016-05-09T08:08:16.595Z,20.87
2016-05-09T08:09:22.020Z,20.98
2016-05-09T08:10:14.570Z,20.98
2016-05-09T08:11:09.213Z,21.3
2016-05-09T08:12:19.465Z,22.6
2016-05-09T08:13:07.421Z,23.7
2016-05-09T08:14:08.095Z,24.59
2016-05-09T08:15:07.739Z,25.3
2016-05-09T08:16:07.726Z,26.05
2016-05-09T08:17:07.557Z,26.37
2016-05-09T08:18:07.732Z,26.59
2016-05-09T08:19:07.734Z,26.8
2016-05-09T08:20:07.721Z,27.21
2016-05-09T08:21:07.725Z,27.39
2016-05-09T08:22:07.570Z,27.67
2016-05-09T08:23:07.744Z,27.91
2016-05-09T08:24:07.733Z,28.06
2016-05-09T08:25:07.720Z,28.32
2016-05-09T08:26:07.722Z,28.87
2016-05-09T08:27:07.725Z,28.69
2016-05-09T08:28:07.711Z,29.07
2016-05-09T08:29:08.886Z,29.49
2016-05-09T08:30:07.608Z,29.57
2016-05-09T08:31:07.735Z,29.68
2016-05-09T08:32:07.722Z,29.72
2016-05-09T08:33:07.725Z,29.43
2016-05-09T08:34:07.743Z,29.4
2016-05-09T08:35:07.574Z,29.44
2016-05-09T08:36:07.421Z,29.53
2016-05-09T08:37:07.752Z,29.56
2016-05-09T08:38:07.738Z,29.72
2016-05-09T08:39:07.740Z,29.49
2016-05-09T08:40:07.743Z,29.56
2016-05-09T08:41:07.747Z,29.56
2016-05-09T08:42:07.749Z,28.81
2016-05-09T08:43:07.752Z,28.59
2016-05-09T08:44:07.614Z,26.91
2016-05-09T08:45:07.757Z,27.14
2016-05-09T08:46:07.760Z,27.39
2016-05-09T08:47:07.762Z,27.88
2016-05-09T08:48:07.765Z,28.22
2016-05-09T08:49:07.753Z,28.58
2016-05-09T08:50:07.770Z,28.91
2016-05-09T08:51:07.617Z,28.21
2016-05-09T08:52:07.620Z,27.58
2016-05-09T08:53:07.779Z,27.47
2016-05-09T08:54:07.781Z,27.48
2016-05-09T08:55:07.784Z,27.69
2016-05-09T08:56:07.631Z,27.47
2016-05-09T08:57:07.789Z,27.41
2016-05-09T08:58:07.792Z,27.23
2016-05-09T08:59:07.639Z,27.06
2016-05-09T09:00:07.797Z,26.89
2016-05-09T09:01:07.800Z,26.77
2016-05-09T09:02:07.788Z,26.46
2016-05-09T09:03:07.633Z,26.69
2016-05-09T09:04:07.808Z,26.72
2016-05-09T09:05:07.796Z,26.55
2016-05-09T09:06:07.798Z,26.43
2016-05-09T09:07:07.801Z,26.36
2016-05-09T09:08:07.803Z,26.37
2016-05-09T09:09:07.807Z,26.22
2016-05-09T09:10:07.793Z,26.02
2016-05-09T09:11:07.795Z,25.99
2016-05-09T09:12:07.798Z,25.98
2016-05-09T09:13:07.646Z,25.75
2016-05-09T09:14:07.804Z,25.74
2016-05-09T09:15:07.807Z,25.74
2016-05-09T09:16:07.794Z,25.61
2016-05-09T09:17:07.796Z,25.31
2016-05-09T09:18:07.799Z,24.97
2016-05-09T09:19:07.646Z,24.87
2016-05-09T09:20:07.648Z,24.92
2016-05-09T09:21:07.807Z,25.15
2016-05-09T09:22:07.794Z,25.5
2016-05-09T09:23:07.797Z,25.61
2016-05-09T09:24:07.784Z,25.68
2016-05-09T09:25:07.803Z,25.84
2016-05-09T09:26:07.789Z,26.2
2016-05-09T09:27:07.792Z,26.4
2016-05-09T09:28:07.639Z,26.62
2016-05-09T09:29:08.219Z,26.4
2016-05-09T09:30:07.785Z,25.75
2016-05-09T09:31:07.787Z,25.86
2016-05-09T09:32:07.791Z,26.01
2016-05-09T09:33:07.777Z,26.17
2016-05-09T09:34:07.639Z,26.32
2016-05-09T09:35:07.627Z,26.54
2016-05-09T09:36:07.785Z,26.76
2016-05-09T09:37:07.772Z,27.1
2016-05-09T09:38:07.775Z,27.16
2016-05-09T09:39:07.777Z,27.16
2016-05-09T09:40:07.624Z,27.06
2016-05-09T09:41:07.783Z,26.91
2016-05-09T09:42:07.770Z,26.84
2016-05-09T09:43:07.773Z,27.01
2016-05-09T09:44:08.103Z,27.02
2016-05-09T09:45:07.622Z,27.09
2016-05-09T09:46:07.781Z,26.98
2016-05-09T09:47:07.767Z,26.69
2016-05-09T09:48:07.771Z,26.49
2016-05-09T09:49:07.757Z,26.28
2016-05-09T09:50:07.776Z,26.11
2016-05-09T09:51:07.762Z,25.94
2016-05-09T09:52:07.625Z,25.89
2016-05-09T09:53:07.612Z,25.69
2016-05-09T09:54:07.756Z,25.64
2016-05-09T09:55:07.790Z,25.89
2016-05-09T09:56:07.761Z,26.12
2016-05-09T09:57:07.748Z,26.21
2016-05-09T09:58:07.766Z,26.21
2016-05-09T09:59:07.613Z,26.17
2016-05-09T10:00:07.771Z,26.11
2016-05-09T10:01:07.743Z,26.12
2016-05-09T10:02:07.747Z,26.06
2016-05-09T10:03:07.592Z,26.15
2016-05-09T10:04:07.752Z,26.05
2016-05-09T10:05:07.755Z,25.97
2016-05-09T10:06:07.741Z,25.69
2016-05-09T10:07:07.587Z,25.67
2016-05-09T10:08:07.730Z,25.72
2016-05-09T10:09:07.733Z,25.93
2016-05-09T10:10:07.735Z,25.98
2016-05-09T10:11:07.566Z,26.18
2016-05-09T10:12:07.726Z,26.31
2016-05-09T10:13:07.776Z,26.39
2016-05-09T10:14:07.575Z,26.47
2016-05-09T10:15:07.734Z,26.52
2016-05-09T10:16:07.784Z,26.58
2016-05-09T10:17:07.568Z,26.84
2016-05-09T10:18:07.570Z,27.24
2016-05-09T10:19:07.557Z,27.67
2016-05-09T10:20:07.576Z,27.76
2016-05-09T10:21:07.718Z,28.11
2016-05-09T10:22:07.581Z,28.59
2016-05-09T10:23:07.568Z,28.68
2016-05-09T10:24:07.711Z,29.03
2016-05-09T10:25:07.714Z,29.37
2016-05-09T10:26:07.717Z,29.43
2016-05-09T10:27:07.734Z,29.56
2016-05-09T10:28:07.784Z,29.71
2016-05-09T10:29:07.725Z,29.84
2016-05-09T10:30:07.572Z,30.12
2016-05-09T10:31:07.745Z,30.19
2016-05-09T10:32:07.733Z,30.47
2016-05-09T10:33:07.579Z,30.64
2016-05-09T10:34:07.739Z,30.71
2016-05-09T10:35:07.741Z,30.83
2016-05-09T10:36:07.744Z,31.05
2016-05-09T10:37:07.590Z,30.57
2016-05-09T10:38:07.749Z,29.87
2016-05-09T10:39:07.766Z,28.91
2016-05-09T10:40:07.754Z,29.15
2016-05-09T10:41:07.772Z,29.2
2016-05-09T10:42:07.775Z,29.71
2016-05-09T10:43:07.607Z,30.09
2016-05-09T10:44:07.484Z,30.3
2016-05-09T10:45:07.783Z,30.62
2016-05-09T10:46:07.785Z,30.07
2016-05-09T10:47:07.788Z,30.09
2016-05-09T10:48:07.791Z,30.46
2016-05-09T10:49:07.794Z,30.69
2016-05-09T10:50:07.796Z,30.72
2016-05-09T10:51:07.799Z,30.83
2016-05-09T10:52:07.801Z,30.99
2016-05-09T10:53:07.648Z,31.09
2016-05-09T10:54:07.667Z,31.33
2016-05-09T10:55:07.826Z,31.6
2016-05-09T10:56:07.845Z,31.87
2016-05-09T10:57:07.831Z,32.06
2016-05-09T10:58:07.834Z,31.95
2016-05-09T10:59:07.524Z,31.82
2016-05-09T11:00:07.745Z,31.76
2016-05-09T11:01:07.858Z,31.54
2016-05-09T11:02:07.860Z,31.72
2016-05-09T11:03:07.847Z,31.79
2016-05-09T11:04:07.850Z,32
2016-05-09T11:05:07.868Z,31.79
2016-05-09T11:06:07.871Z,31.92
2016-05-09T11:07:07.874Z,31.46
2016-05-09T11:08:07.877Z,31.4
2016-05-09T11:09:07.879Z,31.11
2016-05-09T11:10:07.897Z,31.49
2016-05-09T11:11:07.884Z,31.54
2016-05-09T11:12:07.902Z,31.6
2016-05-09T11:13:07.891Z,31.76
2016-05-09T11:14:07.986Z,31.98
2016-05-09T11:15:07.911Z,32.06
2016-05-09T11:16:07.913Z,32
2016-05-09T11:17:07.931Z,32.02
2016-05-09T11:18:07.918Z,32.13
2016-05-09T11:19:07.937Z,32.14
2016-05-09T11:20:07.940Z,32.07
2016-05-09T11:21:07.958Z,32.13
2016-05-09T11:22:07.961Z,32.33
2016-05-09T11:23:07.792Z,32.35
2016-05-09T11:24:07.951Z,32.47
2016-05-09T11:25:07.970Z,32.44
2016-05-09T11:26:07.972Z,32.7
2016-05-09T11:27:07.975Z,32.8
2016-05-09T11:28:07.978Z,32.64
2016-05-09T11:29:07.995Z,32.52
2016-05-09T11:30:07.997Z,32.55
2016-05-09T11:31:07.986Z,32.79
2016-05-09T11:32:07.988Z,32.96
2016-05-09T11:33:08.006Z,33.07
2016-05-09T11:34:07.899Z,33.08
2016-05-09T11:35:08.027Z,32.86
2016-05-09T11:36:08.014Z,32.8
2016-05-09T11:37:08.017Z,32.62
2016-05-09T11:38:08.036Z,32.7
2016-05-09T11:39:08.038Z,32.58
2016-05-09T11:40:08.041Z,32.58
2016-05-09T11:41:08.044Z,32.69
2016-05-09T11:42:08.046Z,32.8
2016-05-09T11:43:08.049Z,32.84
2016-05-09T11:44:08.239Z,32.76
2016-05-09T11:45:08.054Z,32.73
2016-05-09T11:46:08.057Z,32.43
2016-05-09T11:47:08.074Z,32.66
2016-05-09T11:48:07.922Z,32.71
2016-05-09T11:49:08.080Z,32.79
2016-05-09T11:50:08.082Z,32.98
2016-05-09T11:51:07.929Z,33.07
2016-05-09T11:52:08.104Z,33.08
2016-05-09T11:53:08.107Z,32.84
2016-05-09T11:54:08.110Z,32.67
2016-05-09T11:55:08.128Z,32.92
2016-05-09T11:56:07.958Z,33.07
2016-05-09T11:57:08.117Z,33.37
2016-05-09T11:58:08.137Z,33.31
2016-05-09T11:59:08.295Z,33.49
2016-05-09T12:00:08.141Z,33.15
2016-05-09T12:01:07.987Z,33.22
2016-05-09T12:02:08.147Z,32.76
2016-05-09T12:03:08.165Z,32.79
2016-05-09T12:04:08.153Z,32.86
2016-05-09T12:05:08.186Z,33.2
2016-05-09T12:06:08.172Z,33.06
2016-05-09T12:07:08.175Z,33.1
2016-05-09T12:08:08.195Z,32.74
2016-05-09T12:09:08.181Z,32.8
2016-05-09T12:10:08.043Z,32.84
2016-05-09T12:11:08.186Z,32.7
2016-05-09T12:12:08.188Z,32.71
2016-05-09T12:13:08.208Z,33.04
2016-05-09T12:14:08.210Z,32.77
2016-05-09T12:15:08.057Z,32.48
2016-05-09T12:16:08.215Z,32.39
2016-05-09T12:17:08.234Z,32.58
2016-05-09T12:18:08.237Z,32.98
2016-05-09T12:19:08.068Z,32.86
2016-05-09T12:20:08.257Z,32.57
2016-05-09T12:21:08.088Z,32.85
2016-05-09T12:22:08.279Z,32.95
2016-05-09T12:23:08.110Z,32.84
2016-05-09T12:24:08.112Z,32.69
2016-05-09T12:25:08.114Z,32.7
2016-05-09T12:26:08.117Z,32.76
2016-05-09T12:27:08.276Z,32.76
2016-05-09T12:28:08.295Z,32.7
2016-05-09T12:29:09.423Z,32.84
2016-05-09T12:30:08.144Z,33.07
2016-05-09T12:31:08.303Z,33.34
2016-05-09T12:32:08.150Z,33.39
2016-05-09T12:33:08.309Z,33.42
2016-05-09T12:34:08.311Z,33.43
2016-05-09T12:35:08.329Z,33.34
2016-05-09T12:36:08.019Z,33.49
2016-05-09T12:37:08.334Z,33.52
2016-05-09T12:38:08.353Z,33.57
2016-05-09T12:39:08.339Z,33.67
2016-05-09T12:40:08.358Z,33.45
2016-05-09T12:41:08.345Z,33.51
2016-05-09T12:42:08.208Z,33.48
2016-05-09T12:43:08.366Z,33.71
2016-05-09T12:44:09.118Z,33.89
2016-05-09T12:45:08.216Z,33.86
2016-05-09T12:46:08.219Z,33.7
2016-05-09T12:47:08.377Z,33.89
2016-05-09T12:48:08.396Z,34.02
2016-05-09T12:49:08.398Z,33.67
2016-05-09T12:50:08.402Z,33.51
2016-05-09T12:51:08.794Z,33.19
2016-05-09T12:52:08.594Z,33.04
2016-05-09T12:53:08.424Z,32.8
2016-05-09T12:54:08.270Z,31.8
2016-05-09T12:55:08.274Z,32.17